sensor_id;sensor_type;location;lat;lon;timestamp;P1;durP1;ratioP1;P2;durP2;ratioP2
35699;SDS011;21818;51.078;12.108;2022-08-11T00:01:06;6.57;;;2.88;;
35699;SDS011;21818;51.078;12.108;2022-08-11T00:03:34;5.20;;;2.80;;
35699;SDS011;21818;51.078;12.108;2022-08-11T00:06:05;8.38;;;2.95;;
35699;SDS011;21818;51.078;12.108;2022-08-11T00:08:32;6.68;;;2.78;;
35699;SDS011;21818;51.078;12.108;2022-08-11T00:11:00;7.22;;;2.50;;
35699;SDS011;21818;51.078;12.108;2022-08-11T00:13:39;7.22;;;2.65;;
35699;SDS011;21818;51.078;12.108;2022-08-11T00:18:46;4.60;;;2.50;;
35699;SDS011;21818;51.078;12.108;2022-08-11T00:21:14;4.00;;;2.05;;
35699;SDS011;21818;51.078;12.108;2022-08-11T00:23:45;4.32;;;2.22;;
35699;SDS011;21818;51.078;12.108;2022-08-11T00:26:18;5.60;;;2.58;;
35699;SDS011;21818;51.078;12.108;2022-08-11T00:28:45;6.15;;;2.95;;
35699;SDS011;21818;51.078;12.108;2022-08-11T00:31:19;4.07;;;2.33;;
35699;SDS011;21818;51.078;12.108;2022-08-11T00:33:54;11.45;;;2.58;;
35699;SDS011;21818;51.078;12.108;2022-08-11T00:36:22;4.53;;;2.28;;
35699;SDS011;21818;51.078;12.108;2022-08-11T00:38:53;4.55;;;2.97;;
35699;SDS011;21818;51.078;12.108;2022-08-11T00:49:51;5.80;;;2.30;;
35699;SDS011;21818;51.078;12.108;2022-08-11T01:01:08;4.32;;;2.72;;
35699;SDS011;21818;51.078;12.108;2022-08-11T01:06:49;6.85;;;2.90;;
35699;SDS011;21818;51.078;12.108;2022-08-11T01:46:32;9.80;;;3.05;;
35699;SDS011;21818;51.078;12.108;2022-08-11T01:49:16;5.63;;;3.13;;
35699;SDS011;21818;51.078;12.108;2022-08-11T01:54:51;7.43;;;3.00;;
35699;SDS011;21818;51.078;12.108;2022-08-11T01:57:50;4.95;;;2.30;;
35699;SDS011;21818;51.078;12.108;2022-08-11T02:00:26;6.18;;;2.85;;
35699;SDS011;21818;51.078;12.108;2022-08-11T02:03:00;11.80;;;3.22;;
35699;SDS011;21818;51.078;12.108;2022-08-11T02:11:39;4.50;;;2.75;;
35699;SDS011;21818;51.078;12.108;2022-08-11T02:16:58;7.65;;;3.55;;
35699;SDS011;21818;51.078;12.108;2022-08-11T02:20:13;3.58;;;2.55;;
35699;SDS011;21818;51.078;12.108;2022-08-11T02:34:11;5.93;;;3.42;;
35699;SDS011;21818;51.078;12.108;2022-08-11T02:36:46;9.65;;;3.28;;
35699;SDS011;21818;51.078;12.108;2022-08-11T02:39:19;5.95;;;3.17;;
35699;SDS011;21818;51.078;12.108;2022-08-11T02:42:22;8.95;;;2.97;;
35699;SDS011;21818;51.078;12.108;2022-08-11T02:47:34;4.45;;;2.97;;
35699;SDS011;21818;51.078;12.108;2022-08-11T02:59:25;8.10;;;3.40;;
35699;SDS011;21818;51.078;12.108;2022-08-11T03:02:15;8.82;;;3.03;;
35699;SDS011;21818;51.078;12.108;2022-08-11T03:10:28;7.70;;;4.22;;
35699;SDS011;21818;51.078;12.108;2022-08-11T03:13:07;7.47;;;3.33;;
35699;SDS011;21818;51.078;12.108;2022-08-11T03:24:45;9.88;;;4.25;;
35699;SDS011;21818;51.078;12.108;2022-08-11T03:30:11;11.27;;;4.63;;
35699;SDS011;21818;51.078;12.108;2022-08-11T03:35:36;10.55;;;4.40;;
35699;SDS011;21818;51.078;12.108;2022-08-11T03:38:11;7.28;;;3.50;;
35699;SDS011;21818;51.078;12.108;2022-08-11T03:40:42;7.47;;;3.72;;
35699;SDS011;21818;51.078;12.108;2022-08-11T03:43:55;9.48;;;4.40;;
35699;SDS011;21818;51.078;12.108;2022-08-11T04:01:06;9.13;;;4.43;;
35699;SDS011;21818;51.078;12.108;2022-08-11T04:15:03;11.55;;;4.70;;
35699;SDS011;21818;51.078;12.108;2022-08-11T04:21:05;12.23;;;4.40;;
35699;SDS011;21818;51.078;12.108;2022-08-11T04:23:55;9.90;;;4.50;;
35699;SDS011;21818;51.078;12.108;2022-08-11T04:29:33;7.72;;;3.83;;
35699;SDS011;21818;51.078;12.108;2022-08-11T04:35:31;9.27;;;5.68;;
35699;SDS011;21818;51.078;12.108;2022-08-11T04:40:36;8.55;;;4.72;;
35699;SDS011;21818;51.078;12.108;2022-08-11T05:07:28;12.65;;;4.10;;
35699;SDS011;21818;51.078;12.108;2022-08-11T05:13:04;13.85;;;4.90;;
35699;SDS011;21818;51.078;12.108;2022-08-11T05:15:52;11.60;;;4.75;;
35699;SDS011;21818;51.078;12.108;2022-08-11T05:18:44;11.48;;;4.35;;
35699;SDS011;21818;51.078;12.108;2022-08-11T05:21:31;14.68;;;5.03;;
35699;SDS011;21818;51.078;12.108;2022-08-11T05:24:25;11.35;;;5.15;;
35699;SDS011;21818;51.078;12.108;2022-08-11T05:27:15;21.75;;;6.00;;
35699;SDS011;21818;51.078;12.108;2022-08-11T05:30:05;13.18;;;4.65;;
35699;SDS011;21818;51.078;12.108;2022-08-11T05:32:56;12.40;;;4.60;;
35699;SDS011;21818;51.078;12.108;2022-08-11T05:35:45;8.57;;;4.28;;
35699;SDS011;21818;51.078;12.108;2022-08-11T05:38:23;12.40;;;5.10;;
35699;SDS011;21818;51.078;12.108;2022-08-11T05:41:10;14.23;;;4.65;;
35699;SDS011;21818;51.078;12.108;2022-08-11T05:43:57;11.55;;;4.85;;
35699;SDS011;21818;51.078;12.108;2022-08-11T05:46:42;9.45;;;4.50;;
35699;SDS011;21818;51.078;12.108;2022-08-11T05:49:30;10.00;;;3.95;;
35699;SDS011;21818;51.078;12.108;2022-08-11T05:52:16;11.98;;;4.88;;
35699;SDS011;21818;51.078;12.108;2022-08-11T05:55:04;17.35;;;4.38;;
35699;SDS011;21818;51.078;12.108;2022-08-11T05:57:54;11.52;;;4.10;;
35699;SDS011;21818;51.078;12.108;2022-08-11T06:00:27;11.68;;;4.32;;
35699;SDS011;21818;51.078;12.108;2022-08-11T06:02:57;8.82;;;4.28;;
35699;SDS011;21818;51.078;12.108;2022-08-11T06:05:34;12.32;;;4.05;;
35699;SDS011;21818;51.078;12.108;2022-08-11T06:08:02;11.60;;;3.92;;
35699;SDS011;21818;51.078;12.108;2022-08-11T06:10:31;13.00;;;4.35;;
35699;SDS011;21818;51.078;12.108;2022-08-11T06:12:59;8.73;;;3.63;;
35699;SDS011;21818;51.078;12.108;2022-08-11T06:15:25;13.93;;;3.97;;
35699;SDS011;21818;51.078;12.108;2022-08-11T06:17:52;8.43;;;3.85;;
35699;SDS011;21818;51.078;12.108;2022-08-11T06:20:19;9.40;;;3.95;;
35699;SDS011;21818;51.078;12.108;2022-08-11T06:22:47;9.15;;;4.32;;
35699;SDS011;21818;51.078;12.108;2022-08-11T06:25:21;9.27;;;3.80;;
35699;SDS011;21818;51.078;12.108;2022-08-11T06:27:54;9.63;;;3.88;;
35699;SDS011;21818;51.078;12.108;2022-08-11T06:30:28;9.05;;;5.18;;
35699;SDS011;21818;51.078;12.108;2022-08-11T06:32:59;10.52;;;3.70;;
35699;SDS011;21818;51.078;12.108;2022-08-11T06:35:35;9.25;;;4.13;;
35699;SDS011;21818;51.078;12.108;2022-08-11T06:38:14;11.77;;;4.63;;
35699;SDS011;21818;51.078;12.108;2022-08-11T06:41:02;7.60;;;3.30;;
35699;SDS011;21818;51.078;12.108;2022-08-11T06:46:38;10.68;;;3.88;;
35699;SDS011;21818;51.078;12.108;2022-08-11T06:49:11;8.98;;;3.35;;
35699;SDS011;21818;51.078;12.108;2022-08-11T06:52:01;8.43;;;3.42;;
35699;SDS011;21818;51.078;12.108;2022-08-11T06:54:33;11.88;;;3.67;;
35699;SDS011;21818;51.078;12.108;2022-08-11T06:57:05;7.25;;;3.45;;
35699;SDS011;21818;51.078;12.108;2022-08-11T06:59:52;10.15;;;3.75;;
35699;SDS011;21818;51.078;12.108;2022-08-11T07:02:44;5.18;;;3.47;;
35699;SDS011;21818;51.078;12.108;2022-08-11T07:08:01;8.23;;;3.58;;
35699;SDS011;21818;51.078;12.108;2022-08-11T07:14:09;7.32;;;3.63;;
35699;SDS011;21818;51.078;12.108;2022-08-11T07:16:54;9.25;;;3.80;;
35699;SDS011;21818;51.078;12.108;2022-08-11T07:19:26;8.35;;;3.72;;
35699;SDS011;21818;51.078;12.108;2022-08-11T07:22:12;7.13;;;3.60;;
35699;SDS011;21818;51.078;12.108;2022-08-11T07:25:01;6.85;;;3.45;;
35699;SDS011;21818;51.078;12.108;2022-08-11T07:28:07;7.90;;;3.30;;
35699;SDS011;21818;51.078;12.108;2022-08-11T07:30:57;9.65;;;4.15;;
35699;SDS011;21818;51.078;12.108;2022-08-11T07:33:35;8.23;;;3.40;;
35699;SDS011;21818;51.078;12.108;2022-08-11T07:38:49;9.35;;;3.65;;
35699;SDS011;21818;51.078;12.108;2022-08-11T07:41:17;6.32;;;3.33;;
35699;SDS011;21818;51.078;12.108;2022-08-11T07:43:47;8.55;;;4.00;;
35699;SDS011;21818;51.078;12.108;2022-08-11T07:46:16;8.45;;;3.47;;
35699;SDS011;21818;51.078;12.108;2022-08-11T07:49:02;9.88;;;3.78;;
35699;SDS011;21818;51.078;12.108;2022-08-11T07:51:48;6.68;;;3.20;;
35699;SDS011;21818;51.078;12.108;2022-08-11T07:54:32;6.32;;;3.38;;
35699;SDS011;21818;51.078;12.108;2022-08-11T07:57:00;7.07;;;3.40;;
35699;SDS011;21818;51.078;12.108;2022-08-11T07:59:45;6.63;;;3.40;;
35699;SDS011;21818;51.078;12.108;2022-08-11T08:02:30;10.25;;;3.53;;
35699;SDS011;21818;51.078;12.108;2022-08-11T08:05:15;8.45;;;3.53;;
35699;SDS011;21818;51.078;12.108;2022-08-11T08:08:01;8.70;;;3.80;;
35699;SDS011;21818;51.078;12.108;2022-08-11T08:10:45;5.40;;;3.08;;
35699;SDS011;21818;51.078;12.108;2022-08-11T08:13:31;8.75;;;3.78;;
35699;SDS011;21818;51.078;12.108;2022-08-11T08:16:16;7.97;;;3.72;;
35699;SDS011;21818;51.078;12.108;2022-08-11T08:19:02;5.65;;;3.00;;
35699;SDS011;21818;51.078;12.108;2022-08-11T08:21:28;7.35;;;3.58;;
35699;SDS011;21818;51.078;12.108;2022-08-11T08:23:53;6.28;;;3.72;;
35699;SDS011;21818;51.078;12.108;2022-08-11T08:26:22;6.95;;;3.13;;
35699;SDS011;21818;51.078;12.108;2022-08-11T08:29:06;8.40;;;3.65;;
35699;SDS011;21818;51.078;12.108;2022-08-11T08:31:51;6.85;;;3.60;;
35699;SDS011;21818;51.078;12.108;2022-08-11T08:34:19;7.70;;;3.33;;
35699;SDS011;21818;51.078;12.108;2022-08-11T08:36:46;6.97;;;3.15;;
35699;SDS011;21818;51.078;12.108;2022-08-11T08:39:13;9.93;;;3.78;;
35699;SDS011;21818;51.078;12.108;2022-08-11T08:41:40;6.18;;;2.78;;
35699;SDS011;21818;51.078;12.108;2022-08-11T08:44:08;8.45;;;3.28;;
35699;SDS011;21818;51.078;12.108;2022-08-11T08:46:39;6.13;;;3.67;;
35699;SDS011;21818;51.078;12.108;2022-08-11T08:49:07;5.78;;;2.60;;
35699;SDS011;21818;51.078;12.108;2022-08-11T08:51:37;8.23;;;2.80;;
35699;SDS011;21818;51.078;12.108;2022-08-11T08:54:05;6.07;;;3.17;;
35699;SDS011;21818;51.078;12.108;2022-08-11T08:56:33;6.78;;;3.05;;
35699;SDS011;21818;51.078;12.108;2022-08-11T08:59:03;5.72;;;3.17;;
35699;SDS011;21818;51.078;12.108;2022-08-11T09:01:31;6.15;;;2.88;;
35699;SDS011;21818;51.078;12.108;2022-08-11T09:04:02;6.97;;;3.25;;
35699;SDS011;21818;51.078;12.108;2022-08-11T09:08:59;8.23;;;3.28;;
35699;SDS011;21818;51.078;12.108;2022-08-11T09:11:25;6.32;;;3.33;;
35699;SDS011;21818;51.078;12.108;2022-08-11T09:14:09;6.28;;;3.50;;
35699;SDS011;21818;51.078;12.108;2022-08-11T09:16:35;7.93;;;3.17;;
35699;SDS011;21818;51.078;12.108;2022-08-11T09:19:03;5.78;;;2.95;;
35699;SDS011;21818;51.078;12.108;2022-08-11T09:21:29;6.97;;;2.90;;
35699;SDS011;21818;51.078;12.108;2022-08-11T09:23:56;6.28;;;2.55;;
35699;SDS011;21818;51.078;12.108;2022-08-11T09:26:41;6.63;;;2.85;;
35699;SDS011;21818;51.078;12.108;2022-08-11T09:29:23;5.13;;;3.20;;
35699;SDS011;21818;51.078;12.108;2022-08-11T09:31:51;6.00;;;2.80;;
35699;SDS011;21818;51.078;12.108;2022-08-11T09:34:17;4.97;;;2.67;;
35699;SDS011;21818;51.078;12.108;2022-08-11T09:36:43;5.25;;;2.70;;
35699;SDS011;21818;51.078;12.108;2022-08-11T09:39:29;4.60;;;2.55;;
35699;SDS011;21818;51.078;12.108;2022-08-11T09:42:14;5.30;;;2.55;;
35699;SDS011;21818;51.078;12.108;2022-08-11T09:44:41;6.95;;;3.00;;
35699;SDS011;21818;51.078;12.108;2022-08-11T09:47:20;6.22;;;3.20;;
35699;SDS011;21818;51.078;12.108;2022-08-11T09:49:48;6.72;;;3.35;;
35699;SDS011;21818;51.078;12.108;2022-08-11T09:52:17;5.43;;;2.88;;
35699;SDS011;21818;51.078;12.108;2022-08-11T09:54:44;5.38;;;2.70;;
35699;SDS011;21818;51.078;12.108;2022-08-11T09:57:12;5.35;;;2.97;;
35699;SDS011;21818;51.078;12.108;2022-08-11T09:59:56;3.97;;;2.33;;
35699;SDS011;21818;51.078;12.108;2022-08-11T10:02:22;5.70;;;2.95;;
35699;SDS011;21818;51.078;12.108;2022-08-11T10:04:52;4.28;;;2.67;;
35699;SDS011;21818;51.078;12.108;2022-08-11T10:07:43;4.60;;;2.70;;
35699;SDS011;21818;51.078;12.108;2022-08-11T10:10:14;4.45;;;2.72;;
35699;SDS011;21818;51.078;12.108;2022-08-11T10:12:47;4.80;;;2.75;;
35699;SDS011;21818;51.078;12.108;2022-08-11T10:15:21;6.40;;;2.72;;
35699;SDS011;21818;51.078;12.108;2022-08-11T10:18:05;5.00;;;2.50;;
35699;SDS011;21818;51.078;12.108;2022-08-11T10:21:13;5.00;;;2.38;;
35699;SDS011;21818;51.078;12.108;2022-08-11T10:23:47;4.63;;;2.80;;
35699;SDS011;21818;51.078;12.108;2022-08-11T10:26:31;4.72;;;2.72;;
35699;SDS011;21818;51.078;12.108;2022-08-11T10:29:16;5.13;;;2.70;;
35699;SDS011;21818;51.078;12.108;2022-08-11T10:32:02;4.38;;;2.63;;
35699;SDS011;21818;51.078;12.108;2022-08-11T10:34:47;6.07;;;2.55;;
35699;SDS011;21818;51.078;12.108;2022-08-11T10:37:14;5.25;;;2.90;;
35699;SDS011;21818;51.078;12.108;2022-08-11T10:39:41;5.60;;;3.00;;
35699;SDS011;21818;51.078;12.108;2022-08-11T10:42:08;4.15;;;2.35;;
35699;SDS011;21818;51.078;12.108;2022-08-11T10:44:54;5.22;;;2.58;;
35699;SDS011;21818;51.078;12.108;2022-08-11T10:47:22;4.57;;;2.50;;
35699;SDS011;21818;51.078;12.108;2022-08-11T10:49:59;5.15;;;2.50;;
35699;SDS011;21818;51.078;12.108;2022-08-11T10:52:45;3.63;;;2.35;;
35699;SDS011;21818;51.078;12.108;2022-08-11T10:55:32;4.55;;;2.55;;
35699;SDS011;21818;51.078;12.108;2022-08-11T10:58:20;4.80;;;2.63;;
35699;SDS011;21818;51.078;12.108;2022-08-11T11:01:05;4.05;;;2.40;;
35699;SDS011;21818;51.078;12.108;2022-08-11T11:03:35;6.00;;;3.07;;
35699;SDS011;21818;51.078;12.108;2022-08-11T11:06:11;4.10;;;2.30;;
35699;SDS011;21818;51.078;12.108;2022-08-11T11:08:41;5.05;;;2.60;;
35699;SDS011;21818;51.078;12.108;2022-08-11T11:11:17;7.75;;;2.60;;
35699;SDS011;21818;51.078;12.108;2022-08-11T11:13:45;4.80;;;2.95;;
35699;SDS011;21818;51.078;12.108;2022-08-11T11:16:33;4.15;;;2.42;;
35699;SDS011;21818;51.078;12.108;2022-08-11T11:19:18;6.80;;;2.70;;
35699;SDS011;21818;51.078;12.108;2022-08-11T11:21:50;6.93;;;3.00;;
35699;SDS011;21818;51.078;12.108;2022-08-11T11:27:26;4.90;;;2.90;;
35699;SDS011;21818;51.078;12.108;2022-08-11T11:30:06;3.75;;;2.13;;
35699;SDS011;21818;51.078;12.108;2022-08-11T11:37:39;4.78;;;2.88;;
35699;SDS011;21818;51.078;12.108;2022-08-11T11:40:10;4.30;;;2.65;;
35699;SDS011;21818;51.078;12.108;2022-08-11T11:42:42;4.40;;;2.55;;
35699;SDS011;21818;51.078;12.108;2022-08-11T11:45:10;5.63;;;2.45;;
35699;SDS011;21818;51.078;12.108;2022-08-11T11:47:39;6.10;;;2.72;;
35699;SDS011;21818;51.078;12.108;2022-08-11T11:50:06;3.90;;;2.83;;
35699;SDS011;21818;51.078;12.108;2022-08-11T11:52:32;4.20;;;2.33;;
35699;SDS011;21818;51.078;12.108;2022-08-11T11:54:59;3.75;;;2.38;;
35699;SDS011;21818;51.078;12.108;2022-08-11T11:57:26;3.55;;;2.67;;
35699;SDS011;21818;51.078;12.108;2022-08-11T12:00:11;4.13;;;2.58;;
35699;SDS011;21818;51.078;12.108;2022-08-11T12:02:57;4.20;;;2.20;;
35699;SDS011;21818;51.078;12.108;2022-08-11T12:05:25;5.50;;;2.65;;
35699;SDS011;21818;51.078;12.108;2022-08-11T12:07:52;4.60;;;2.45;;
35699;SDS011;21818;51.078;12.108;2022-08-11T12:10:39;4.78;;;2.45;;
35699;SDS011;21818;51.078;12.108;2022-08-11T12:13:37;4.25;;;2.65;;
35699;SDS011;21818;51.078;12.108;2022-08-11T12:16:04;5.07;;;2.58;;
35699;SDS011;21818;51.078;12.108;2022-08-11T12:18:33;6.68;;;2.42;;
35699;SDS011;21818;51.078;12.108;2022-08-11T12:21:00;4.20;;;2.38;;
35699;SDS011;21818;51.078;12.108;2022-08-11T12:23:27;4.00;;;2.40;;
35699;SDS011;21818;51.078;12.108;2022-08-11T12:26:13;3.78;;;1.90;;
35699;SDS011;21818;51.078;12.108;2022-08-11T12:28:58;4.22;;;2.30;;
35699;SDS011;21818;51.078;12.108;2022-08-11T12:31:25;4.68;;;2.53;;
35699;SDS011;21818;51.078;12.108;2022-08-11T12:33:58;4.55;;;2.40;;
35699;SDS011;21818;51.078;12.108;2022-08-11T12:36:28;5.88;;;2.58;;
35699;SDS011;21818;51.078;12.108;2022-08-11T12:38:59;4.80;;;2.58;;
35699;SDS011;21818;51.078;12.108;2022-08-11T12:41:29;4.95;;;2.20;;
35699;SDS011;21818;51.078;12.108;2022-08-11T12:44:14;2.83;;;2.00;;
35699;SDS011;21818;51.078;12.108;2022-08-11T12:47:06;5.05;;;2.17;;
35699;SDS011;21818;51.078;12.108;2022-08-11T12:49:34;4.57;;;2.22;;
35699;SDS011;21818;51.078;12.108;2022-08-11T12:52:25;4.28;;;2.33;;
35699;SDS011;21818;51.078;12.108;2022-08-11T12:55:08;4.10;;;2.42;;
35699;SDS011;21818;51.078;12.108;2022-08-11T12:57:44;3.35;;;2.35;;
35699;SDS011;21818;51.078;12.108;2022-08-11T13:00:29;3.08;;;2.17;;
35699;SDS011;21818;51.078;12.108;2022-08-11T13:03:17;5.57;;;2.67;;
35699;SDS011;21818;51.078;12.108;2022-08-11T13:06:03;3.45;;;2.13;;
35699;SDS011;21818;51.078;12.108;2022-08-11T13:08:30;5.00;;;2.17;;
35699;SDS011;21818;51.078;12.108;2022-08-11T13:10:59;3.87;;;2.20;;
35699;SDS011;21818;51.078;12.108;2022-08-11T13:13:45;5.15;;;2.40;;
35699;SDS011;21818;51.078;12.108;2022-08-11T13:16:13;3.55;;;2.15;;
35699;SDS011;21818;51.078;12.108;2022-08-11T13:18:39;4.43;;;2.35;;
35699;SDS011;21818;51.078;12.108;2022-08-11T13:21:06;5.38;;;2.25;;
35699;SDS011;21818;51.078;12.108;2022-08-11T13:23:34;4.47;;;2.72;;
35699;SDS011;21818;51.078;12.108;2022-08-11T13:26:01;2.80;;;2.30;;
35699;SDS011;21818;51.078;12.108;2022-08-11T13:28:28;3.13;;;2.17;;
35699;SDS011;21818;51.078;12.108;2022-08-11T13:30:54;3.22;;;1.90;;
35699;SDS011;21818;51.078;12.108;2022-08-11T13:33:45;5.00;;;2.47;;
35699;SDS011;21818;51.078;12.108;2022-08-11T13:36:16;4.05;;;2.20;;
35699;SDS011;21818;51.078;12.108;2022-08-11T13:38:44;3.35;;;1.92;;
35699;SDS011;21818;51.078;12.108;2022-08-11T13:41:10;4.63;;;2.17;;
35699;SDS011;21818;51.078;12.108;2022-08-11T13:43:55;2.78;;;2.10;;
35699;SDS011;21818;51.078;12.108;2022-08-11T13:46:22;4.57;;;2.05;;
35699;SDS011;21818;51.078;12.108;2022-08-11T13:48:48;3.30;;;2.05;;
35699;SDS011;21818;51.078;12.108;2022-08-11T13:51:16;2.97;;;2.00;;
35699;SDS011;21818;51.078;12.108;2022-08-11T13:56:25;3.95;;;2.33;;
35699;SDS011;21818;51.078;12.108;2022-08-11T13:58:51;3.60;;;2.00;;
35699;SDS011;21818;51.078;12.108;2022-08-11T14:01:19;3.13;;;2.33;;
35699;SDS011;21818;51.078;12.108;2022-08-11T14:03:45;3.88;;;2.40;;
35699;SDS011;21818;51.078;12.108;2022-08-11T14:06:13;4.63;;;2.10;;
35699;SDS011;21818;51.078;12.108;2022-08-11T14:08:42;3.55;;;2.17;;
35699;SDS011;21818;51.078;12.108;2022-08-11T14:11:08;2.88;;;1.95;;
35699;SDS011;21818;51.078;12.108;2022-08-11T14:13:53;3.75;;;2.60;;
35699;SDS011;21818;51.078;12.108;2022-08-11T14:16:29;4.43;;;2.50;;
35699;SDS011;21818;51.078;12.108;2022-08-11T14:18:59;2.97;;;1.70;;
35699;SDS011;21818;51.078;12.108;2022-08-11T14:21:28;2.80;;;1.80;;
35699;SDS011;21818;51.078;12.108;2022-08-11T14:24:17;3.00;;;2.00;;
35699;SDS011;21818;51.078;12.108;2022-08-11T14:26:43;3.10;;;2.00;;
35699;SDS011;21818;51.078;12.108;2022-08-11T14:29:14;4.05;;;2.40;;
35699;SDS011;21818;51.078;12.108;2022-08-11T14:31:52;3.47;;;2.17;;
35699;SDS011;21818;51.078;12.108;2022-08-11T14:34:20;2.92;;;1.80;;
35699;SDS011;21818;51.078;12.108;2022-08-11T14:36:50;3.50;;;2.33;;
35699;SDS011;21818;51.078;12.108;2022-08-11T14:39:18;3.75;;;2.13;;
35699;SDS011;21818;51.078;12.108;2022-08-11T14:41:48;3.42;;;2.25;;
35699;SDS011;21818;51.078;12.108;2022-08-11T14:44:36;3.47;;;2.20;;
35699;SDS011;21818;51.078;12.108;2022-08-11T14:47:21;3.38;;;2.00;;
35699;SDS011;21818;51.078;12.108;2022-08-11T14:49:48;3.95;;;1.92;;
35699;SDS011;21818;51.078;12.108;2022-08-11T14:52:17;2.92;;;2.10;;
35699;SDS011;21818;51.078;12.108;2022-08-11T14:54:45;4.25;;;2.22;;
35699;SDS011;21818;51.078;12.108;2022-08-11T14:57:32;4.65;;;2.10;;
35699;SDS011;21818;51.078;12.108;2022-08-11T15:00:03;3.03;;;1.90;;
35699;SDS011;21818;51.078;12.108;2022-08-11T15:02:30;3.00;;;1.98;;
35699;SDS011;21818;51.078;12.108;2022-08-11T15:05:17;3.53;;;2.55;;
35699;SDS011;21818;51.078;12.108;2022-08-11T15:07:44;4.40;;;1.80;;
35699;SDS011;21818;51.078;12.108;2022-08-11T15:10:10;3.45;;;2.00;;
35699;SDS011;21818;51.078;12.108;2022-08-11T15:12:38;4.32;;;2.03;;
35699;SDS011;21818;51.078;12.108;2022-08-11T15:15:06;2.88;;;2.10;;
35699;SDS011;21818;51.078;12.108;2022-08-11T15:17:53;3.30;;;1.85;;
35699;SDS011;21818;51.078;12.108;2022-08-11T15:20:20;3.67;;;2.13;;
35699;SDS011;21818;51.078;12.108;2022-08-11T15:23:06;2.85;;;2.08;;
35699;SDS011;21818;51.078;12.108;2022-08-11T15:25:52;3.40;;;2.20;;
35699;SDS011;21818;51.078;12.108;2022-08-11T15:28:23;3.78;;;2.28;;
35699;SDS011;21818;51.078;12.108;2022-08-11T15:31:10;3.40;;;2.00;;
35699;SDS011;21818;51.078;12.108;2022-08-11T15:33:47;2.53;;;1.73;;
35699;SDS011;21818;51.078;12.108;2022-08-11T15:36:35;4.43;;;2.40;;
35699;SDS011;21818;51.078;12.108;2022-08-11T15:39:22;3.42;;;1.90;;
35699;SDS011;21818;51.078;12.108;2022-08-11T15:41:56;3.03;;;2.10;;
35699;SDS011;21818;51.078;12.108;2022-08-11T15:44:55;3.35;;;1.73;;
35699;SDS011;21818;51.078;12.108;2022-08-11T15:47:54;3.58;;;1.98;;
35699;SDS011;21818;51.078;12.108;2022-08-11T15:50:24;2.78;;;1.55;;
35699;SDS011;21818;51.078;12.108;2022-08-11T15:55:41;2.78;;;1.90;;
35699;SDS011;21818;51.078;12.108;2022-08-11T15:58:09;2.00;;;1.60;;
35699;SDS011;21818;51.078;12.108;2022-08-11T16:00:55;2.88;;;1.83;;
35699;SDS011;21818;51.078;12.108;2022-08-11T16:03:48;3.05;;;1.90;;
35699;SDS011;21818;51.078;12.108;2022-08-11T16:06:36;4.20;;;1.90;;
35699;SDS011;21818;51.078;12.108;2022-08-11T16:09:09;2.90;;;1.83;;
35699;SDS011;21818;51.078;12.108;2022-08-11T16:11:37;2.72;;;1.70;;
35699;SDS011;21818;51.078;12.108;2022-08-11T16:14:04;3.13;;;1.75;;
35699;SDS011;21818;51.078;12.108;2022-08-11T16:16:49;2.45;;;1.70;;
35699;SDS011;21818;51.078;12.108;2022-08-11T16:19:17;4.18;;;2.25;;
35699;SDS011;21818;51.078;12.108;2022-08-11T16:21:44;2.15;;;1.63;;
35699;SDS011;21818;51.078;12.108;2022-08-11T16:24:14;2.08;;;1.55;;
35699;SDS011;21818;51.078;12.108;2022-08-11T16:26:41;3.75;;;1.85;;
35699;SDS011;21818;51.078;12.108;2022-08-11T16:29:09;2.95;;;1.80;;
35699;SDS011;21818;51.078;12.108;2022-08-11T16:31:35;2.33;;;1.38;;
35699;SDS011;21818;51.078;12.108;2022-08-11T16:34:04;3.13;;;1.80;;
35699;SDS011;21818;51.078;12.108;2022-08-11T16:36:51;3.20;;;1.90;;
35699;SDS011;21818;51.078;12.108;2022-08-11T16:39:37;3.58;;;1.70;;
35699;SDS011;21818;51.078;12.108;2022-08-11T16:42:05;3.65;;;1.90;;
35699;SDS011;21818;51.078;12.108;2022-08-11T16:44:49;2.33;;;1.63;;
35699;SDS011;21818;51.078;12.108;2022-08-11T16:47:37;3.63;;;1.80;;
35699;SDS011;21818;51.078;12.108;2022-08-11T16:50:02;2.90;;;1.77;;
35699;SDS011;21818;51.078;12.108;2022-08-11T16:52:29;2.60;;;1.80;;
35699;SDS011;21818;51.078;12.108;2022-08-11T16:54:54;3.70;;;1.90;;
35699;SDS011;21818;51.078;12.108;2022-08-11T16:57:21;2.75;;;1.60;;
35699;SDS011;21818;51.078;12.108;2022-08-11T17:00:08;2.25;;;1.55;;
35699;SDS011;21818;51.078;12.108;2022-08-11T17:02:36;2.15;;;1.88;;
35699;SDS011;21818;51.078;12.108;2022-08-11T17:05:25;2.22;;;1.63;;
35699;SDS011;21818;51.078;12.108;2022-08-11T17:08:10;2.67;;;1.83;;
35699;SDS011;21818;51.078;12.108;2022-08-11T17:10:59;2.78;;;1.60;;
35699;SDS011;21818;51.078;12.108;2022-08-11T17:13:46;3.20;;;1.73;;
35699;SDS011;21818;51.078;12.108;2022-08-11T17:16:20;2.38;;;1.80;;
35699;SDS011;21818;51.078;12.108;2022-08-11T17:18:58;2.35;;;1.65;;
35699;SDS011;21818;51.078;12.108;2022-08-11T17:21:28;2.20;;;1.65;;
35699;SDS011;21818;51.078;12.108;2022-08-11T17:24:05;2.80;;;1.73;;
35699;SDS011;21818;51.078;12.108;2022-08-11T17:26:36;2.17;;;1.50;;
35699;SDS011;21818;51.078;12.108;2022-08-11T17:32:02;4.95;;;1.67;;
35699;SDS011;21818;51.078;12.108;2022-08-11T17:34:53;2.65;;;1.75;;
35699;SDS011;21818;51.078;12.108;2022-08-11T17:37:41;3.08;;;1.75;;
35699;SDS011;21818;51.078;12.108;2022-08-11T17:40:09;3.65;;;1.70;;
35699;SDS011;21818;51.078;12.108;2022-08-11T17:42:37;5.00;;;1.65;;
35699;SDS011;21818;51.078;12.108;2022-08-11T17:45:24;4.78;;;1.88;;
35699;SDS011;21818;51.078;12.108;2022-08-11T17:48:10;3.00;;;1.65;;
35699;SDS011;21818;51.078;12.108;2022-08-11T17:50:53;4.60;;;1.90;;
35699;SDS011;21818;51.078;12.108;2022-08-11T17:53:40;2.88;;;1.67;;
35699;SDS011;21818;51.078;12.108;2022-08-11T17:56:26;3.58;;;1.60;;
35699;SDS011;21818;51.078;12.108;2022-08-11T17:59:14;3.13;;;1.92;;
35699;SDS011;21818;51.078;12.108;2022-08-11T18:02:00;9.38;;;2.00;;
35699;SDS011;21818;51.078;12.108;2022-08-11T18:04:48;2.70;;;1.65;;
35699;SDS011;21818;51.078;12.108;2022-08-11T18:07:18;3.50;;;1.95;;
35699;SDS011;21818;51.078;12.108;2022-08-11T18:10:04;3.08;;;1.40;;
35699;SDS011;21818;51.078;12.108;2022-08-11T18:12:50;2.10;;;1.70;;
35699;SDS011;21818;51.078;12.108;2022-08-11T18:15:40;2.92;;;1.40;;
35699;SDS011;21818;51.078;12.108;2022-08-11T18:18:26;3.85;;;1.80;;
35699;SDS011;21818;51.078;12.108;2022-08-11T18:21:12;5.35;;;1.75;;
35699;SDS011;21818;51.078;12.108;2022-08-11T18:23:59;2.22;;;1.48;;
35699;SDS011;21818;51.078;12.108;2022-08-11T18:26:50;3.33;;;1.77;;
35699;SDS011;21818;51.078;12.108;2022-08-11T18:29:38;2.38;;;1.63;;
35699;SDS011;21818;51.078;12.108;2022-08-11T18:32:25;3.33;;;1.85;;
35699;SDS011;21818;51.078;12.108;2022-08-11T18:35:11;3.20;;;1.70;;
35699;SDS011;21818;51.078;12.108;2022-08-11T18:37:56;2.60;;;1.52;;
35699;SDS011;21818;51.078;12.108;2022-08-11T18:40:41;4.63;;;1.75;;
35699;SDS011;21818;51.078;12.108;2022-08-11T18:43:27;1.70;;;1.15;;
35699;SDS011;21818;51.078;12.108;2022-08-11T18:46:16;3.05;;;1.70;;
35699;SDS011;21818;51.078;12.108;2022-08-11T18:49:04;4.13;;;1.70;;
35699;SDS011;21818;51.078;12.108;2022-08-11T18:51:52;2.67;;;1.50;;
35699;SDS011;21818;51.078;12.108;2022-08-11T18:54:40;6.15;;;1.42;;
35699;SDS011;21818;51.078;12.108;2022-08-11T18:57:26;2.15;;;1.10;;
35699;SDS011;21818;51.078;12.108;2022-08-11T19:00:11;3.28;;;1.42;;
35699;SDS011;21818;51.078;12.108;2022-08-11T19:02:56;3.60;;;1.38;;